METAR Data
IDs: Format: Raw Decoded Include TAF

Data at: 1031 UTC 26 Sep 2018

KTQE 260954Z AUTO 30008KT 10SM CLR 09/06 A3021 RMK AO2 SLP228 T00890056
KTQE 260854Z AUTO 28004KT 10SM CLR 08/06 A3020 RMK AO2 SLP225 T00780061 51013
KTQE 260754Z AUTO 27006KT 10SM CLR 09/06 A3019 RMK AO2 SLP221 T00890061
KTQE 260654Z AUTO 29009KT 10SM CLR 11/07 A3018 RMK AO2 SLP215 T01060067
KTQE 260554Z AUTO 28010KT 10SM CLR 10/07 A3017 RMK AO2 SLP212 T01000072 10150 20089 401780089 51007
KTQE 260454Z AUTO 25005KT 10SM CLR 09/07 A3016 RMK AO2 SLP210 T00890072
KTQE 260354Z AUTO 25005KT 10SM CLR 09/08 A3015 RMK AO2 SLP209 T00940078
KTQE 260254Z AUTO 26005KT 10SM CLR 10/08 A3014 RMK AO2 SLP205 T01000083 51021
KTQE 260154Z AUTO 27004KT 10SM CLR 11/08 A3013 RMK AO2 SLP200 T01110083
KTQE 260054Z AUTO 29006KT 10SM CLR 12/09 A3011 RMK AO2 SLP193 T01220089
KTQE 252354Z AUTO 34006KT 10SM CLR 15/09 A3008 RMK AO2 SLP181 T01500089 10178 20139 53012
KTQE 252254Z AUTO 33014KT 10SM CLR 17/08 A3007 RMK AO2 SLP176 T01720078
KTQE 252154Z AUTO 34014G22KT 10SM OVC048 17/09 A3006 RMK AO2 SLP172 T01670089
KTQE 252054Z AUTO 33014G21KT 10SM FEW036 BKN045 16/09 A3004 RMK AO2 PK WND 32026/1956 SLP168 T01610094 53006
KTQE 251954Z AUTO 32016G24KT 10SM FEW028 BKN035 BKN043 16/11 A3003 RMK AO2 PK WND 32026/1908 SLP163 T01610111
KTQE 251904Z AUTO 33016G25KT 10SM FEW018 SCT023 BKN033 17/12 A3003 RMK AO2 T01670117
KTQE 251854Z AUTO 32014G23KT 10SM SCT018 BKN023 OVC035 16/12 A3003 RMK AO2 SLP162 T01560117
KTQE 251831Z AUTO 33016KT 10SM OVC016 15/12 A3003 RMK AO2 T01500122
KTQE 251820Z AUTO 33016G23KT 10SM OVC014 14/12 A3003 RMK AO2 T01440122
KTQE 251813Z AUTO 33017G23KT 10SM OVC016 14/12 A3003 RMK AO2 T01440122
KTQE 251754Z AUTO 32014KT 10SM OVC012 14/12 A3003 RMK AO2 SLP162 60106 T01390122 10144 20122 53016
KTQE 251654Z AUTO 34009KT 7SM OVC011 13/12 A3001 RMK AO2 SLP155 T01330122
KTQE 251601Z AUTO 36012KT 10SM OVC012 13/12 A2997 RMK AO2 T01280122
KTQE 251554Z AUTO 36012G20KT 10SM SCT010 BKN015 OVC024 13/12 A2997 RMK AO2 RAE42 SLP144 P0003 T01280122
KTQE 251518Z AUTO 36012G18KT 10SM -RA FEW011 BKN017 OVC021 12/12 A2999 RMK AO2 P0001 T01220117
KTQE 251502Z AUTO 34014G22KT 8SM -RA FEW009 BKN013 OVC060 12/12 A2999 RMK AO2 P0000 T01220117
KTQE 251454Z AUTO 33012G19KT 10SM -RA BKN009 BKN060 OVC075 13/12 A2998 RMK AO2 PK WND 35026/1355 TSE01 PRESRR SLP145 P0005 60103 T01280122 53042
KTQE 251407Z AUTO 01015KT 9SM -RA FEW017 BKN075 OVC100 13/13 A2990 RMK AO2 PK WND 35026/1355 LTG DSNT E-S TSE01 P0002 T01280128
KTQE 251354Z AUTO 35018G27KT 3SM +TSRA BR FEW010 SCT028 OVC042 13/13 A2991 RMK AO2 PK WND 33028/1333 LTG DSNT NE-S TSE22B42 SLP123 P0060 T01280128
KTQE 251342Z AUTO 32015G28KT 3SM +TSRA BR SCT009 BKN029 OVC044 13/13 A2995 RMK AO2 PK WND 33028/1333 LTG DSNT ALQDS TSE22B42 P0053 T01280128
KTQE 251333Z AUTO 34020G28KT 2 1/2SM VCTS +RA BR SCT006 BKN016 OVC031 13/13 A2994 RMK AO2 PK WND 33028/1333 LTG DSNT ALQDS TSE22 P0046 T01280128
KTQE 251326Z AUTO 33017G24KT 3SM VCTS +RA BR SCT006 BKN013 OVC033 13/13 A2994 RMK AO2 LTG DSNT ALQDS TSE22 PRESRR P0038 T01330128
KTQE 251324Z AUTO 33016G24KT 2 1/2SM +RA BR SCT006 BKN013 OVC033 13/13 A2993 RMK AO2 LTG DSNT ALQDS TSE22 PRESRR P0037 T01330128
KTQE 251321Z AUTO 01017G24KT 2 1/2SM +TSRA BR SCT008 SCT016 OVC033 13/13 A2987 RMK AO2 LTG DSNT ALQDS P0032 T01330128
KTQE 251317Z AUTO 35016G23KT 1 3/4SM +TSRA BR FEW005 BKN012 OVC029 13/13 A2990 RMK AO2 LTG DSNT ALQDS P0030 T01330128
KTQE 251310Z AUTO 36015G21KT 2 1/2SM +TSRA BR FEW005 BKN029 OVC036 13/13 A2987 RMK AO2 LTG DSNT ALQDS P0020 T01330133
KTQE 251304Z AUTO 01013KT 4SM +TSRA BR SCT005 SCT015 OVC033 13/13 A2988 RMK AO2 LTG DSNT ALQDS P0007 T01330133
KTQE 251258Z AUTO 02011G21KT 2 1/2SM +TSRA BR SCT005 BKN017 OVC039 13/13 A2989 RMK AO2 LTG DSNT ALQDS P0003 T01330133
KTQE 251254Z AUTO 01013G24KT 2SM +TSRA BR BKN005 BKN013 OVC028 14/13 A2988 RMK AO2 LTG DSNT ALQDS RAB24 TSB42 SLP111 P0038 T01390133
KTQE 251241Z AUTO 34014G21KT 1 3/4SM VCTS +RA BR OVC006 14/14 A2989 RMK AO2 LTG DSNT ALQDS RAB24 P0022 T01390139
KTQE 251236Z AUTO 34013G20KT 3SM VCTS +RA BR OVC006 14/14 A2988 RMK AO2 LTG DSNT E AND SW AND W RAB24 PRESRR P0009 T01390139
KTQE 251218Z AUTO 36015KT 10SM VCTS OVC007 14/14 A2984 RMK AO2 LTG DSNT SW AND W T01440139
KTQE 251154Z AUTO 01009KT 10SM OVC008 14/14 A2985 RMK AO2 LTG DSNT SW AND W PRESFR SLP100 T01440139 10150 20128 58013
KTQE 251054Z AUTO 34007KT 10SM OVC012 14/13 A2988 RMK AO2 SLP111 T01390133
KTQE 251045Z AUTO 35004KT 10SM BKN012 OVC031 14/13 A2988 RMK AO2 T01390133
KTQE 250954Z AUTO 01004KT 10SM CLR 14/13 A2987 RMK AO2 SLP104 T01390128
KTQE 250854Z AUTO 36006KT 10SM OVC042 14/13 A2989 RMK AO2 SLP112 T01440133 58006
KTQE 250754Z AUTO 34004KT 10SM OVC035 14/13 A2991 RMK AO2 SLP118 T01440133
KTQE 250654Z AUTO 33005KT 10SM OVC035 14/13 A2991 RMK AO2 SLP120 T01440133
KTQE 250554Z AUTO 35007KT 10SM BKN037 OVC060 14/13 A2990 RMK AO2 SLP118 T01440128 10200 20144 402440100 51008
KTQE 250454Z AUTO 35008KT 10SM BKN037 BKN060 15/13 A2990 RMK AO2 SLP117 T01500133
KTQE 250354Z AUTO 35009KT 10SM FEW040 FEW047 BKN060 16/13 A2989 RMK AO2 SLP112 T01560133
KTQE 250254Z AUTO 36010KT 10SM BKN060 17/14 A2988 RMK AO2 SLP109 T01670139 53023
KTQE 250154Z AUTO 02007KT 10SM BKN060 18/15 A2985 RMK AO2 SLP100 T01830150
KTQE 250054Z AUTO 36009KT 10SM BKN049 19/16 A2983 RMK AO2 SLP094 T01890156
KTQE 242354Z AUTO 33007KT 10SM CLR 20/16 A2981 RMK AO2 SLP087 T02000156 10244 20200 55003
KTQE 242254Z AUTO 30006KT 10SM SCT040 22/16 A2980 RMK AO2 SLP083 T02170156